Time;durP1;ratioP1;P1;durP2;ratioP2;P2;SDS_P1;SDS_P2;PMS_P1;PMS_P2;Temp;Humidity;BMP_temperature;BMP_pressure;BME280_temperature;BME280_humidity;BME280_pressure;Samples;Min_cycle;Max_cycle;Signal;HPM_P1;HPM_P2
2023/03/28 00:00:44;;;;;;;6.78;2.20;;;2.80;99.90;;;;;;5062956;28;20027;-42
2023/03/28 00:03:13;;;;;;;3.63;1.60;;;2.80;99.90;;;;;;4997963;28;20270;-41
2023/03/28 00:05:39;;;;;;;5.28;1.73;;;2.80;99.90;;;;;;5053111;28;20032;-42
2023/03/28 00:08:05;;;;;;;3.70;1.60;;;2.80;99.90;;;;;;5007106;28;20084;-42
2023/03/28 00:10:34;;;;;;;2.63;1.58;;;2.80;99.90;;;;;;5040327;28;20473;-40
2023/03/28 00:12:59;;;;;;;3.03;1.50;;;2.80;99.90;;;;;;5019188;28;20073;-42
2023/03/28 00:15:25;;;;;;;3.63;1.52;;;2.80;99.90;;;;;;5028735;28;20012;-42
2023/03/28 00:17:51;;;;;;;4.00;1.80;;;2.80;99.90;;;;;;5032976;28;20152;-41
2023/03/28 00:20:17;;;;;;;3.97;1.75;;;2.80;99.90;;;;;;5013882;28;20049;-42
2023/03/28 00:22:43;;;;;;;5.40;1.80;;;2.80;99.90;;;;;;5096321;28;20514;-42
2023/03/28 00:25:15;;;;;;;7.38;1.88;;;2.80;99.90;;;;;;5093602;28;20020;-42
2023/03/28 00:27:43;;;;;;;4.75;1.40;;;2.70;99.90;;;;;;5034300;28;20084;-43
2023/03/28 00:30:09;;;;;;;3.33;1.55;;;2.70;99.90;;;;;;5093900;28;20460;-42
2023/03/28 00:32:36;;;;;;;2.63;1.52;;;2.70;99.90;;;;;;5043386;28;20040;-42
2023/03/28 00:35:01;;;;;;;3.08;1.40;;;2.70;99.90;;;;;;5097161;28;20375;-42
2023/03/28 00:37:27;;;;;;;4.40;1.80;;;2.70;99.90;;;;;;5040268;28;20447;-42
2023/03/28 00:39:52;;;;;;;3.65;1.40;;;2.70;99.90;;;;;;5100946;28;20380;-42
2023/03/28 00:42:20;;;;;;;4.43;1.40;;;2.70;99.90;;;;;;5035181;28;20099;-42
2023/03/28 00:44:56;;;;;;;4.30;1.70;;;2.60;99.90;;;;;;5101758;28;20038;-42
2023/03/28 00:47:29;;;;;;;5.15;1.63;;;2.60;99.90;;;;;;5035682;28;20870;-42
2023/03/28 00:50:21;;;;;;;3.10;1.48;;;2.60;99.90;;;;;;5101496;28;20103;-43
2023/03/28 00:52:52;;;;;;;5.45;1.85;;;2.70;99.90;;;;;;5019959;28;20113;-42
2023/03/28 00:55:27;;;;;;;8.43;1.85;;;2.60;99.90;;;;;;5100453;28;20473;-42
2023/03/28 00:57:56;;;;;;;2.72;1.45;;;2.60;99.90;;;;;;5036305;28;20074;-42
2023/03/28 01:00:23;;;;;;;8.00;2.17;;;2.60;99.90;;;;;;5101802;28;20173;-43
2023/03/28 01:02:52;;;;;;;4.05;1.60;;;2.50;99.90;;;;;;5035568;28;20041;-42
2023/03/28 01:05:26;;;;;;;5.10;1.73;;;2.50;99.90;;;;;;5102820;28;20511;-42
2023/03/28 01:07:57;;;;;;;6.47;2.63;;;2.50;99.90;;;;;;5043643;28;20034;-42
2023/03/28 01:10:24;;;;;;;4.95;2.05;;;2.50;99.90;;;;;;4980930;28;20030;-43
2023/03/28 01:12:52;;;;;;;7.15;2.70;;;2.40;99.90;;;;;;5047746;28;20090;-42
2023/03/28 01:15:17;;;;;;;5.03;2.10;;;2.40;99.90;;;;;;5011218;28;20030;-42
2023/03/28 01:17:47;;;;;;;3.42;2.33;;;2.40;99.90;;;;;;5041041;28;20031;-42
2023/03/28 01:20:25;;;;;;;3.72;2.25;;;2.30;99.90;;;;;;5023161;28;20030;-42
2023/03/28 01:22:51;;;;;;;6.03;2.30;;;2.30;99.90;;;;;;5039000;28;20101;-43
2023/03/28 01:25:43;;;;;;;4.63;2.20;;;2.30;99.90;;;;;;5023560;28;20038;-43
2023/03/28 01:28:36;;;;;;;4.00;2.60;;;2.30;99.90;;;;;;5043845;28;20059;-42
2023/03/28 01:31:39;;;;;;;3.65;2.30;;;2.30;99.90;;;;;;5001934;28;20048;-42
2023/03/28 01:34:17;;;;;;;5.30;2.75;;;2.20;99.90;;;;;;5065305;28;20733;-43
2023/03/28 01:37:04;;;;;;;5.07;2.70;;;2.20;99.90;;;;;;5001416;28;20064;-43
2023/03/28 01:39:55;;;;;;;5.60;2.30;;;2.10;99.90;;;;;;5040900;28;20050;-42
2023/03/28 01:42:39;;;;;;;4.38;2.28;;;2.10;99.90;;;;;;5097769;28;20070;-43
2023/03/28 01:45:22;;;;;;;5.43;2.50;;;2.10;99.90;;;;;;5056839;28;20040;-42
2023/03/28 01:48:09;;;;;;;3.88;2.45;;;2.00;99.90;;;;;;5008326;28;20023;-42
2023/03/28 01:50:44;;;;;;;6.55;2.72;;;2.00;99.90;;;;;;5045311;28;20054;-43
2023/03/28 01:53:27;;;;;;;5.88;2.78;;;2.00;99.90;;;;;;5095352;28;20019;-42
2023/03/28 01:56:11;;;;;;;4.93;3.10;;;1.90;99.90;;;;;;5059698;28;20024;-43
2023/03/28 01:58:58;;;;;;;4.80;2.72;;;1.90;99.90;;;;;;5084659;28;20031;-42
2023/03/28 02:01:35;;;;;;;6.78;2.60;;;2.00;99.90;;;;;;5073990;28;20023;-43
2023/03/28 02:04:06;;;;;;;7.95;2.58;;;1.90;99.90;;;;;;5074351;28;20030;-42
2023/03/28 02:06:33;;;;;;;3.75;2.60;;;1.90;99.90;;;;;;5071347;28;20027;-42
2023/03/28 02:09:00;;;;;;;4.55;2.60;;;1.90;99.90;;;;;;5083388;28;20123;-42
2023/03/28 02:11:28;;;;;;;4.07;2.38;;;1.80;99.90;;;;;;5061517;28;20036;-42
2023/03/28 02:14:01;;;;;;;6.68;2.70;;;1.80;99.90;;;;;;5094333;28;20024;-42
2023/03/28 02:16:29;;;;;;;6.80;2.83;;;1.80;99.90;;;;;;5053827;28;20028;-41
2023/03/28 02:18:57;;;;;;;4.93;2.60;;;1.80;99.90;;;;;;5096353;28;20024;-42
2023/03/28 02:21:29;;;;;;;2.88;2.25;;;1.80;99.90;;;;;;5044656;28;20015;-41
2023/03/28 02:23:55;;;;;;;3.63;2.25;;;1.80;99.90;;;;;;5015516;28;20071;-42
2023/03/28 02:26:22;;;;;;;6.00;2.85;;;1.80;99.90;;;;;;5056901;28;20026;-42
2023/03/28 02:28:51;;;;;;;6.00;2.92;;;1.80;99.90;;;;;;5002249;28;20108;-42
2023/03/28 02:31:18;;;;;;;5.00;2.45;;;1.70;99.90;;;;;;5059128;28;20091;-42
2023/03/28 02:33:47;;;;;;;8.57;2.97;;;1.70;99.90;;;;;;4999610;28;20037;-42
2023/03/28 02:36:27;;;;;;;5.78;2.38;;;1.70;99.90;;;;;;5065891;28;20423;-42
2023/03/28 02:39:26;;;;;;;3.72;2.58;;;1.70;99.90;;;;;;5000106;28;20385;-42
2023/03/28 02:42:36;;;;;;;6.25;2.90;;;1.70;99.90;;;;;;5057227;28;20453;-42
2023/03/28 02:45:32;;;;;;;5.78;3.00;;;1.60;99.90;;;;;;5013168;28;20037;-41
2023/03/28 02:48:13;;;;;;;5.93;2.75;;;1.60;99.90;;;;;;5027757;28;20101;-42
2023/03/28 02:51:28;;;;;;;7.20;2.83;;;1.50;99.90;;;;;;5033003;28;20020;-42
2023/03/28 02:54:01;;;;;;;6.45;2.80;;;1.50;99.90;;;;;;4981172;28;20034;-42
2023/03/28 02:57:01;;;;;;;4.82;2.83;;;1.50;99.90;;;;;;5054047;28;20493;-43
2023/03/28 02:59:47;;;;;;;5.18;2.90;;;1.50;99.90;;;;;;4979598;28;20026;-41
2023/03/28 03:02:19;;;;;;;5.95;3.08;;;1.50;99.90;;;;;;5037115;28;20046;-40
2023/03/28 03:04:45;;;;;;;4.80;2.58;;;1.50;99.90;;;;;;5102813;28;20034;-42
2023/03/28 03:07:12;;;;;;;6.57;3.00;;;1.50;99.90;;;;;;5037334;28;20479;-43
2023/03/28 03:09:39;;;;;;;5.85;3.50;;;1.50;99.90;;;;;;5102520;28;20027;-42
2023/03/28 03:12:05;;;;;;;4.68;2.47;;;1.40;99.90;;;;;;5037870;28;20034;-40
2023/03/28 03:14:31;;;;;;;5.53;2.72;;;1.40;99.90;;;;;;4980751;28;20033;-40
2023/03/28 03:16:57;;;;;;;4.35;2.55;;;1.40;99.90;;;;;;5044206;28;20023;-43
2023/03/28 03:19:22;;;;;;;6.72;2.97;;;1.40;99.90;;;;;;5012698;28;20032;-42
2023/03/28 03:21:48;;;;;;;5.20;2.72;;;1.40;99.90;;;;;;5035942;28;20030;-42
2023/03/28 03:24:14;;;;;;;6.40;2.80;;;1.40;99.90;;;;;;4998091;28;20094;-42
2023/03/28 03:26:40;;;;;;;7.38;2.63;;;1.40;99.90;;;;;;5023521;28;20036;-42
2023/03/28 03:29:06;;;;;;;4.93;2.80;;;1.30;99.90;;;;;;5038306;28;20150;-42
2023/03/28 03:31:32;;;;;;;5.13;2.40;;;1.30;99.90;;;;;;5010303;28;20579;-42
2023/03/28 03:33:58;;;;;;;4.57;2.60;;;1.30;99.90;;;;;;5051705;28;20029;-42
2023/03/28 03:36:25;;;;;;;4.45;2.50;;;1.30;99.90;;;;;;5006025;28;20803;-41
2023/03/28 03:38:51;;;;;;;7.43;2.50;;;1.30;99.90;;;;;;5056012;28;20156;-43
2023/03/28 03:41:17;;;;;;;6.22;2.50;;;1.30;99.90;;;;;;5005540;28;20215;-41
2023/03/28 03:43:42;;;;;;;3.70;2.58;;;1.30;99.90;;;;;;5057322;28;20022;-42
2023/03/28 03:46:11;;;;;;;4.53;2.78;;;1.30;99.90;;;;;;4998055;28;20460;-41
2023/03/28 03:48:36;;;;;;;6.38;3.00;;;1.20;99.90;;;;;;5063569;28;20365;-42
2023/03/28 03:51:05;;;;;;;7.10;2.60;;;1.20;99.90;;;;;;4998484;28;20034;-42
2023/03/28 03:53:33;;;;;;;3.97;2.70;;;1.20;99.90;;;;;;5063529;28;20036;-42
2023/03/28 03:56:02;;;;;;;7.70;3.13;;;1.20;99.90;;;;;;4999132;28;20110;-41
2023/03/28 03:58:28;;;;;;;7.82;3.05;;;1.20;99.90;;;;;;5055698;28;20771;-40
2023/03/28 04:00:54;;;;;;;5.68;2.70;;;1.20;99.90;;;;;;5005424;28;20033;-43
2023/03/28 04:03:20;;;;;;;5.75;2.95;;;1.20;99.90;;;;;;5042810;28;20032;-42
2023/03/28 04:05:45;;;;;;;6.47;3.20;;;1.20;99.90;;;;;;5018321;28;20083;-41
2023/03/28 04:08:11;;;;;;;5.78;2.97;;;1.10;99.90;;;;;;5012437;28;20079;-42
2023/03/28 04:10:36;;;;;;;7.20;3.30;;;1.10;99.90;;;;;;5068367;28;20110;-42
2023/03/28 04:13:02;;;;;;;4.82;2.90;;;1.10;99.90;;;;;;5084002;28;20073;-42
2023/03/28 04:15:28;;;;;;;5.15;3.22;;;1.10;99.90;;;;;;5054804;28;20031;-42
2023/03/28 04:17:55;;;;;;;8.05;3.70;;;1.10;99.90;;;;;;5095225;28;20027;-42
2023/03/28 04:20:22;;;;;;;6.60;3.85;;;1.10;99.90;;;;;;5042810;28;20486;-42
2023/03/28 04:22:47;;;;;;;6.50;3.70;;;1.10;99.90;;;;;;5091421;28;20095;-42
2023/03/28 04:25:13;;;;;;;6.28;3.40;;;1.10;99.90;;;;;;5043715;28;20036;-41
2023/03/28 04:27:40;;;;;;;6.75;3.55;;;1.00;99.90;;;;;;5101184;28;20038;-42
2023/03/28 04:30:08;;;;;;;5.85;3.60;;;1.00;99.90;;;;;;5037199;28;20031;-43
2023/03/28 04:32:34;;;;;;;6.05;3.78;;;1.00;99.90;;;;;;5101921;28;20497;-42
2023/03/28 04:35:02;;;;;;;5.53;3.25;;;1.00;99.90;;;;;;5035834;28;20042;-42
2023/03/28 04:37:27;;;;;;;7.68;4.10;;;1.00;99.90;;;;;;5101676;28;20054;-43
2023/03/28 04:39:54;;;;;;;5.90;3.63;;;1.00;99.90;;;;;;5044072;28;20491;-44
2023/03/28 04:42:20;;;;;;;7.38;4.10;;;0.90;99.90;;;;;;5100166;28;20298;-43
2023/03/28 04:44:46;;;;;;;10.88;4.00;;;1.00;99.90;;;;;;5058821;28;20128;-40
2023/03/28 04:47:12;;;;;;;7.32;4.00;;;0.90;99.90;;;;;;5086853;28;20028;-43
2023/03/28 04:49:44;;;;;;;6.50;3.90;;;0.90;99.90;;;;;;5071344;28;20116;-42
2023/03/28 04:52:09;;;;;;;7.57;4.18;;;0.90;99.90;;;;;;5078005;28;20031;-42
2023/03/28 04:54:35;;;;;;;8.52;4.18;;;0.90;99.90;;;;;;5081246;28;20026;-42
2023/03/28 04:57:04;;;;;;;7.50;4.50;;;0.90;99.90;;;;;;5064656;28;20178;-42
2023/03/28 04:59:29;;;;;;;10.75;4.43;;;0.90;99.90;;;;;;5092196;28;20023;-42
2023/03/28 05:01:55;;;;;;;7.47;4.22;;;0.90;99.90;;;;;;5053796;28;20027;-43
2023/03/28 05:04:25;;;;;;;6.97;3.92;;;0.80;99.90;;;;;;5097974;28;20469;-42
2023/03/28 05:06:51;;;;;;;8.15;4.25;;;0.80;99.90;;;;;;5047400;28;20447;-42
2023/03/28 05:09:17;;;;;;;6.68;4.28;;;0.80;99.90;;;;;;5096425;28;20494;-42
2023/03/28 05:11:43;;;;;;;8.05;4.13;;;0.80;99.90;;;;;;5046345;28;20084;-43
2023/03/28 05:14:09;;;;;;;10.65;4.60;;;0.80;99.90;;;;;;5104500;28;20023;-41
2023/03/28 05:16:35;;;;;;;10.45;4.93;;;0.80;99.90;;;;;;5038735;28;20486;-42
2023/03/28 05:19:01;;;;;;;5.13;4.32;;;0.80;99.90;;;;;;5104577;28;20039;-42
2023/03/28 05:21:27;;;;;;;6.72;4.03;;;0.80;99.90;;;;;;5039006;28;20103;-42
2023/03/28 05:23:52;;;;;;;6.10;4.63;;;0.80;99.90;;;;;;5020943;28;20145;-43
2023/03/28 05:26:18;;;;;;;5.72;4.13;;;0.70;99.90;;;;;;5053245;28;20034;-42
2023/03/28 05:28:43;;;;;;;5.50;3.78;;;0.70;99.90;;;;;;5012766;28;20045;-42
2023/03/28 05:31:10;;;;;;;7.32;4.25;;;0.70;99.90;;;;;;5039238;28;20055;-43
2023/03/28 05:33:39;;;;;;;5.65;4.10;;;0.70;99.90;;;;;;5025358;28;20455;-42
2023/03/28 05:36:05;;;;;;;7.07;4.00;;;0.70;99.90;;;;;;5029163;28;20398;-43
2023/03/28 05:38:32;;;;;;;7.28;3.85;;;0.70;99.90;;;;;;5036049;28;20041;-41
2023/03/28 05:40:58;;;;;;;8.82;4.28;;;0.70;99.90;;;;;;5060179;28;20022;-41
2023/03/28 05:43:24;;;;;;;6.15;3.95;;;0.80;99.90;;;;;;5071959;28;20055;-42
2023/03/28 05:45:50;;;;;;;6.63;4.13;;;0.70;99.90;;;;;;5007993;28;20060;-43
2023/03/28 05:48:16;;;;;;;5.38;3.33;;;0.80;99.90;;;;;;5056116;28;20088;-41
2023/03/28 05:50:43;;;;;;;5.97;3.67;;;0.70;99.90;;;;;;5005134;28;20065;-43
2023/03/28 05:53:09;;;;;;;7.57;3.67;;;0.70;99.90;;;;;;5056832;28;20580;-44
2023/03/28 05:55:35;;;;;;;5.72;3.55;;;0.80;99.90;;;;;;5000013;28;20033;-43
2023/03/28 05:58:00;;;;;;;5.25;3.67;;;0.80;99.90;;;;;;5063013;28;20072;-42
2023/03/28 06:00:27;;;;;;;5.40;3.55;;;0.80;99.90;;;;;;4999791;28;20033;-42
2023/03/28 06:02:56;;;;;;;6.53;3.08;;;0.80;99.90;;;;;;5064524;28;20034;-43
2023/03/28 06:05:25;;;;;;;4.57;3.13;;;0.80;99.90;;;;;;4999719;28;20105;-43
2023/03/28 06:07:53;;;;;;;4.40;2.80;;;0.80;99.90;;;;;;5059984;28;20066;-42
2023/03/28 06:10:19;;;;;;;4.68;3.05;;;0.90;99.90;;;;;;5001590;28;20866;-41
2023/03/28 06:12:45;;;;;;;5.40;3.05;;;0.90;99.90;;;;;;5048932;28;20038;-42
2023/03/28 06:15:14;;;;;;;3.88;2.78;;;0.90;99.90;;;;;;5014683;28;20049;-42
2023/03/28 06:17:40;;;;;;;7.22;3.38;;;0.90;99.90;;;;;;5036813;28;20029;-42
2023/03/28 06:20:08;;;;;;;4.47;3.17;;;1.00;99.90;;;;;;5025378;28;20552;-43
2023/03/28 06:22:35;;;;;;;4.25;2.78;;;1.00;99.90;;;;;;5009769;28;20030;-42
2023/03/28 06:25:01;;;;;;;5.93;3.10;;;1.00;99.90;;;;;;4999697;28;20113;-43
2023/03/28 06:27:27;;;;;;;3.80;2.97;;;1.10;99.90;;;;;;5044318;28;20188;-44
2023/03/28 06:29:53;;;;;;;4.07;2.72;;;1.10;99.90;;;;;;5050858;28;20707;-43
2023/03/28 06:32:18;;;;;;;4.57;2.85;;;1.10;99.90;;;;;;5094656;28;20021;-42
2023/03/28 06:34:44;;;;;;;5.68;2.97;;;1.10;99.90;;;;;;5044498;28;20378;-43
2023/03/28 06:37:10;;;;;;;3.85;2.75;;;1.20;99.90;;;;;;5096657;28;20535;-41
2023/03/28 06:39:35;;;;;;;5.82;3.03;;;1.20;99.90;;;;;;5044172;28;20066;-43
2023/03/28 06:42:02;;;;;;;5.03;2.80;;;1.20;99.90;;;;;;5102316;28;20031;-43
2023/03/28 06:44:29;;;;;;;5.70;3.60;;;1.30;99.90;;;;;;5037997;28;20034;-43
2023/03/28 06:46:54;;;;;;;6.57;3.38;;;1.30;99.90;;;;;;5103042;28;20475;-42
2023/03/28 06:49:20;;;;;;;5.60;2.80;;;1.40;99.90;;;;;;5038034;28;20025;-42
2023/03/28 06:51:46;;;;;;;6.15;3.15;;;1.40;99.90;;;;;;4981316;28;20034;-43
2023/03/28 06:54:14;;;;;;;4.22;2.72;;;1.40;99.90;;;;;;5044006;28;20027;-43
2023/03/28 06:56:39;;;;;;;5.78;3.55;;;1.40;99.90;;;;;;5011302;28;20053;-43
2023/03/28 06:59:05;;;;;;;4.05;3.13;;;1.50;99.90;;;;;;5033631;28;20349;-43
2023/03/28 07:01:31;;;;;;;4.10;2.80;;;1.50;99.90;;;;;;4984457;28;20034;-43
2023/03/28 07:03:58;;;;;;;5.45;2.90;;;1.60;99.90;;;;;;4989441;28;20154;-44
2023/03/28 07:06:25;;;;;;;3.80;2.72;;;1.70;99.90;;;;;;4985898;28;20041;-43
2023/03/28 07:08:52;;;;;;;7.10;2.63;;;1.80;99.90;;;;;;4985455;28;20225;-43
2023/03/28 07:11:17;;;;;;;4.68;2.65;;;1.90;99.90;;;;;;4986001;28;20838;-43
2023/03/28 07:13:43;;;;;;;4.63;2.58;;;2.00;99.90;;;;;;4988862;28;20023;-43
2023/03/28 07:16:14;;;;;;;3.90;2.58;;;2.10;99.90;;;;;;4984987;28;20041;-43
2023/03/28 07:18:40;;;;;;;6.05;2.72;;;2.20;99.90;;;;;;4986943;28;20105;-42
2023/03/28 07:21:10;;;;;;;4.95;2.63;;;2.40;99.90;;;;;;4986973;28;20659;-43
2023/03/28 07:23:36;;;;;;;5.15;2.88;;;2.50;99.90;;;;;;4986466;28;20037;-43
2023/03/28 07:26:01;;;;;;;4.80;2.80;;;2.60;99.90;;;;;;4986988;28;20029;-43
2023/03/28 07:28:30;;;;;;;4.45;2.72;;;2.70;99.90;;;;;;4986574;28;20057;-42
2023/03/28 07:30:55;;;;;;;5.28;2.70;;;2.80;99.90;;;;;;4986613;28;20846;-43
2023/03/28 07:33:21;;;;;;;3.45;2.30;;;2.90;99.90;;;;;;4985969;28;20037;-43
2023/03/28 07:35:46;;;;;;;4.63;2.60;;;3.00;99.90;;;;;;4987586;28;20042;-43
2023/03/28 07:38:12;;;;;;;3.22;2.53;;;3.10;99.90;;;;;;4985180;28;20042;-42
2023/03/28 07:40:38;;;;;;;3.45;2.45;;;3.10;99.90;;;;;;4986538;28;20366;-43
2023/03/28 07:43:04;;;;;;;6.05;2.60;;;3.20;99.90;;;;;;4985060;28;20121;-42
2023/03/28 07:45:30;;;;;;;3.00;2.67;;;3.20;99.90;;;;;;4986438;28;20018;-43
2023/03/28 07:47:56;;;;;;;4.03;2.47;;;3.20;99.90;;;;;;4987113;28;20041;-42
2023/03/28 07:50:22;;;;;;;5.97;2.67;;;3.20;99.90;;;;;;4985750;28;20046;-44
2023/03/28 07:52:48;;;;;;;5.07;2.80;;;3.20;99.90;;;;;;4987694;28;20038;-42
2023/03/28 07:55:17;;;;;;;4.95;3.45;;;3.20;99.90;;;;;;4984879;28;20029;-43
2023/03/28 07:57:44;;;;;;;4.72;4.22;;;3.20;99.90;;;;;;4985505;28;20098;-43
2023/03/28 08:00:11;;;;;;;3.90;3.50;;;3.20;99.90;;;;;;4985761;28;20057;-43
2023/03/28 08:02:40;;;;;;;3.88;2.85;;;3.30;99.90;;;;;;4986478;28;20603;-41
2023/03/28 08:05:06;;;;;;;2.88;2.58;;;3.30;99.90;;;;;;4984432;28;20120;-43
2023/03/28 08:07:33;;;;;;;7.10;3.75;;;3.30;99.90;;;;;;4986616;28;20581;-43
2023/03/28 08:09:59;;;;;;;4.47;3.17;;;3.40;99.90;;;;;;4985923;28;20393;-41
2023/03/28 08:12:25;;;;;;;4.53;3.13;;;3.50;99.90;;;;;;4988862;28;20038;-43
2023/03/28 08:14:51;;;;;;;5.80;3.20;;;3.50;99.90;;;;;;4988051;28;20102;-43
2023/03/28 08:17:16;;;;;;;4.43;3.20;;;3.60;99.90;;;;;;4990527;28;20686;-42
2023/03/28 08:19:43;;;;;;;6.55;3.17;;;3.70;99.90;;;;;;4988671;28;20113;-44
2023/03/28 08:22:09;;;;;;;5.65;2.90;;;3.80;99.90;;;;;;4989598;28;20030;-43
2023/03/28 08:24:35;;;;;;;8.02;4.03;;;3.90;99.90;;;;;;4990061;28;20041;-42
2023/03/28 08:27:00;;;;;;;3.88;3.08;;;4.00;99.90;;;;;;4988777;28;20026;-42
2023/03/28 08:29:26;;;;;;;4.72;3.20;;;4.10;99.90;;;;;;4989169;28;20030;-39
2023/03/28 08:31:51;;;;;;;5.68;3.28;;;4.30;99.90;;;;;;4989842;28;20078;-43
2023/03/28 08:34:17;;;;;;;6.72;3.53;;;4.40;99.90;;;;;;4988698;28;20155;-43
2023/03/28 08:36:43;;;;;;;5.53;3.00;;;4.50;99.90;;;;;;4988797;28;20153;-42
2023/03/28 08:39:08;;;;;;;5.05;3.22;;;4.60;99.90;;;;;;4990640;28;20699;-41
2023/03/28 08:42:19;;;;;;;5.90;3.90;;;4.70;99.90;;;;;;4989412;28;20033;-41
2023/03/28 08:44:50;;;;;;;5.47;3.20;;;4.90;99.90;;;;;;4988129;28;20084;-42
2023/03/28 08:47:26;;;;;;;4.65;3.40;;;5.10;99.90;;;;;;4989031;28;20331;-43
2023/03/28 08:50:06;;;;;;;6.82;3.38;;;5.30;99.90;;;;;;4989071;28;20052;-44
2023/03/28 08:52:31;;;;;;;5.28;3.20;;;5.50;99.90;;;;;;4991830;28;20038;-42
2023/03/28 08:55:12;;;;;;;6.85;3.00;;;5.60;99.90;;;;;;4988735;28;20468;-43
2023/03/28 08:57:41;;;;;;;5.35;3.05;;;5.70;99.90;;;;;;4987972;28;20134;-42
2023/03/28 09:00:25;;;;;;;5.75;2.90;;;5.90;99.90;;;;;;4986933;28;20383;-42
2023/03/28 09:02:50;;;;;;;5.90;3.25;;;6.00;99.90;;;;;;4988796;28;20210;-42
2023/03/28 09:05:55;;;;;;;5.47;3.15;;;6.10;99.90;;;;;;4986887;28;20488;-43
2023/03/28 09:08:39;;;;;;;5.97;2.75;;;6.10;99.90;;;;;;4988492;28;20038;-40
2023/03/28 09:11:23;;;;;;;8.98;2.70;;;6.30;99.90;;;;;;4987449;28;20131;-42
2023/03/28 09:13:49;;;;;;;5.97;3.05;;;6.30;99.90;;;;;;4990342;28;20042;-44
2023/03/28 09:16:43;;;;;;;5.80;3.10;;;6.30;99.90;;;;;;4987516;28;20034;-42
2023/03/28 09:19:27;;;;;;;7.00;2.83;;;6.40;99.90;;;;;;4991381;28;20122;-43
2023/03/28 09:22:15;;;;;;;6.18;2.80;;;6.40;99.90;;;;;;4987138;28;20033;-43
2023/03/28 09:25:05;;;;;;;7.13;2.53;;;6.50;99.90;;;;;;4990158;28;20640;-43
2023/03/28 09:28:02;;;;;;;4.57;2.42;;;6.60;99.90;;;;;;4989819;28;20546;-43
2023/03/28 09:30:34;;;;;;;3.50;2.30;;;6.70;99.90;;;;;;4987629;28;20044;-43
2023/03/28 09:33:07;;;;;;;6.35;1.90;;;6.70;99.90;;;;;;4990334;28;20033;-43
2023/03/28 09:35:37;;;;;;;5.13;2.28;;;6.80;99.90;;;;;;4988443;28;20056;-44
2023/03/28 09:38:11;;;;;;;3.15;2.47;;;6.90;99.90;;;;;;4989180;28;20083;-42
2023/03/28 09:40:41;;;;;;;3.38;1.92;;;7.00;99.90;;;;;;4989253;28;20045;-42
2023/03/28 09:43:32;;;;;;;5.65;2.25;;;7.00;99.90;;;;;;4986760;28;20084;-41
2023/03/28 09:46:04;;;;;;;5.30;1.90;;;7.10;99.90;;;;;;4988313;28;20489;-42
2023/03/28 09:48:35;;;;;;;3.35;1.77;;;7.10;99.90;;;;;;4989683;28;20065;-43
2023/03/28 09:51:04;;;;;;;5.70;2.25;;;7.20;99.90;;;;;;4987184;28;20030;-42
2023/03/28 09:53:32;;;;;;;4.63;2.13;;;7.20;99.90;;;;;;4987908;28;20560;-43
2023/03/28 09:56:26;;;;;;;5.22;2.15;;;7.20;99.90;;;;;;4988109;28;20073;-45
2023/03/28 09:58:55;;;;;;;5.32;2.47;;;7.20;99.90;;;;;;4986813;28;20033;-42
2023/03/28 10:01:37;;;;;;;5.03;2.30;;;7.30;99.90;;;;;;4986539;28;20520;-42
2023/03/28 10:04:37;;;;;;;2.90;1.90;;;7.30;99.90;;;;;;4988038;28;20038;-42
2023/03/28 10:07:09;;;;;;;4.32;2.00;;;7.40;99.90;;;;;;5024445;28;20049;-44
2023/03/28 10:09:56;;;;;;;5.20;2.53;;;7.50;99.90;;;;;;4988081;28;20033;-42
2023/03/28 10:12:34;;;;;;;4.55;2.00;;;7.60;99.90;;;;;;4987295;28;20025;-42
2023/03/28 10:15:00;;;;;;;2.97;2.20;;;7.70;99.90;;;;;;4988765;28;20030;-41
2023/03/28 10:17:34;;;;;;;4.95;2.33;;;7.80;99.90;;;;;;4987343;28;20030;-43
2023/03/28 10:20:20;;;;;;;2.67;2.00;;;7.90;99.90;;;;;;4987008;28;20121;-43
2023/03/28 10:22:51;;;;;;;4.93;1.88;;;8.00;99.90;;;;;;4988752;28;20030;-43
2023/03/28 10:25:32;;;;;;;5.25;2.28;;;8.10;99.90;;;;;;5010860;28;20113;-42
2023/03/28 10:27:59;;;;;;;2.80;2.00;;;8.20;99.90;;;;;;4987213;28;20108;-44
2023/03/28 10:30:26;;;;;;;6.28;2.28;;;8.20;99.90;;;;;;4985991;28;21230;-43
2023/03/28 10:33:17;;;;;;;3.92;2.38;;;8.30;99.90;;;;;;5019017;28;20024;-42
2023/03/28 10:35:54;;;;;;;8.05;2.45;;;8.40;99.90;;;;;;4985840;28;20058;-43
2023/03/28 10:38:21;;;;;;;5.20;2.53;;;8.40;99.90;;;;;;4983728;28;20038;-43
2023/03/28 10:41:10;;;;;;;4.35;2.10;;;8.40;99.90;;;;;;4985308;28;20061;-42
2023/03/28 10:43:41;;;;;;;6.18;2.83;;;8.50;99.90;;;;;;4987146;28;20115;-42
2023/03/28 10:46:32;;;;;;;3.35;2.03;;;8.50;99.90;;;;;;4987107;28;20033;-41
2023/03/28 10:49:03;;;;;;;3.67;1.98;;;8.60;99.90;;;;;;4989569;28;21234;-42
2023/03/28 10:51:33;;;;;;;4.40;2.50;;;8.70;99.90;;;;;;4988604;28;20083;-43
2023/03/28 10:54:21;;;;;;;5.28;2.50;;;8.70;99.90;;;;;;4986321;28;20030;-42
2023/03/28 10:57:03;;;;;;;6.43;2.42;;;8.80;99.90;;;;;;4987502;28;20053;-43
2023/03/28 11:00:00;;;;;;;3.50;1.92;;;8.90;99.90;;;;;;4986069;28;20045;-44
2023/03/28 11:02:40;;;;;;;3.83;1.80;;;8.90;99.90;;;;;;4986028;28;20369;-42
2023/03/28 11:05:27;;;;;;;3.25;1.90;;;8.90;99.90;;;;;;4985157;28;20041;-44
2023/03/28 11:07:53;;;;;;;3.00;1.80;;;9.00;99.90;;;;;;4988883;28;20440;-43
2023/03/28 11:10:21;;;;;;;3.58;1.77;;;9.00;99.90;;;;;;4985767;28;20167;-42
2023/03/28 11:13:21;;;;;;;3.38;2.05;;;9.00;99.90;;;;;;4986355;28;20491;-41
2023/03/28 11:16:36;;;;;;;3.47;1.70;;;9.10;99.90;;;;;;4985676;28;20117;-42
2023/03/28 11:19:18;;;;;;;5.63;1.95;;;9.20;99.90;;;;;;4992238;28;20050;-42
2023/03/28 11:22:22;;;;;;;4.43;2.10;;;9.20;99.90;;;;;;4985716;28;20041;-42
2023/03/28 11:25:18;;;;;;;3.15;1.75;;;9.20;99.90;;;;;;4912118;28;20039;-42
2023/03/28 11:28:15;;;;;;;4.47;1.98;;;9.20;99.90;;;;;;4989021;28;20121;-42
2023/03/28 11:30:46;;;;;;;4.20;1.70;;;9.10;99.90;;;;;;5024261;28;21590;-43
2023/03/28 11:33:33;;;;;;;3.63;2.00;;;9.20;99.90;;;;;;4985523;28;20431;-42
2023/03/28 11:36:18;;;;;;;3.22;1.73;;;9.20;99.90;;;;;;4985011;28;20034;-43
2023/03/28 11:38:50;;;;;;;2.85;1.65;;;9.30;99.90;;;;;;4988131;28;20048;-43
2023/03/28 11:41:18;;;;;;;7.03;1.90;;;9.40;99.90;;;;;;4985266;28;20056;-43
2023/03/28 11:44:02;;;;;;;4.20;1.95;;;9.40;99.90;;;;;;4988641;28;20551;-43
2023/03/28 11:47:10;;;;;;;3.63;1.60;;;9.50;99.90;;;;;;4985241;28;20118;-43
2023/03/28 11:49:44;;;;;;;3.83;1.90;;;9.60;99.90;;;;;;4967938;28;20038;-43
2023/03/28 11:52:37;;;;;;;4.63;2.22;;;9.70;99.90;;;;;;4985570;28;21725;-43
2023/03/28 11:55:11;;;;;;;;;;;9.80;99.30;;;;;;4986312;28;20026;-43
2023/03/28 11:57:50;;;;;;;;;;;9.80;98.90;;;;;;4984528;28;19936;-43
2023/03/28 12:00:21;;;;;;;3.83;1.90;;;9.80;98.80;;;;;;4985109;28;20262;-43
2023/03/28 12:03:09;;;;;;;4.85;2.40;;;9.80;97.40;;;;;;4985136;28;20848;-42
2023/03/28 12:05:42;;;;;;;7.07;2.47;;;9.80;97.70;;;;;;4985489;28;20038;-43
2023/03/28 12:08:12;;;;;;;4.47;1.90;;;9.80;97.40;;;;;;4984034;28;20034;-43
2023/03/28 12:10:40;;;;;;;3.85;1.88;;;9.80;97.30;;;;;;4985009;28;20022;-42
2023/03/28 12:13:20;;;;;;;3.15;1.90;;;9.80;97.30;;;;;;4985045;28;20034;-42
2023/03/28 12:15:59;;;;;;;4.50;1.90;;;9.90;97.40;;;;;;4984449;28;20829;-42
2023/03/28 12:18:44;;;;;;;4.55;1.83;;;10.00;97.30;;;;;;4984380;28;20068;-44
2023/03/28 12:21:15;;;;;;;4.88;2.63;;;10.00;97.40;;;;;;4985729;28;20061;-43
2023/03/28 12:23:53;;;;;;;3.35;2.15;;;10.00;97.50;;;;;;4987078;28;20033;-44
2023/03/28 12:26:34;;;;;;;3.10;1.85;;;10.10;97.60;;;;;;4983491;28;20692;-43
2023/03/28 12:29:08;;;;;;;6.13;1.77;;;10.30;98.00;;;;;;4986276;28;20030;-42
2023/03/28 12:31:52;;;;;;;4.32;2.03;;;10.40;97.90;;;;;;4985866;28;20045;-42
2023/03/28 12:34:30;;;;;;;2.22;2.03;;;10.50;97.90;;;;;;4984040;28;20033;-43
2023/03/28 12:37:10;;;;;;;4.28;2.08;;;10.60;97.80;;;;;;4985352;28;20328;-43
2023/03/28 12:39:42;;;;;;;4.00;2.22;;;10.70;97.30;;;;;;4985253;28;20030;-43
2023/03/28 12:42:12;;;;;;;5.43;1.90;;;10.70;96.70;;;;;;4985114;28;20041;-42
2023/03/28 12:44:51;;;;;;;3.17;1.92;;;10.70;97.10;;;;;;4988276;28;20077;-43
2023/03/28 12:47:28;;;;;;;4.40;1.85;;;10.80;97.00;;;;;;4984028;28;20038;-43
2023/03/28 12:50:19;;;;;;;3.28;1.90;;;10.90;97.20;;;;;;4986175;28;20092;-43
2023/03/28 12:52:45;;;;;;;4.95;2.00;;;11.00;97.20;;;;;;4983767;28;20030;-44
2023/03/28 12:55:23;;;;;;;2.20;1.80;;;11.00;96.50;;;;;;4985813;28;20107;-43
2023/03/28 12:57:50;;;;;;;5.50;2.10;;;11.00;96.80;;;;;;4985068;28;20169;-43
2023/03/28 13:00:47;;;;;;;3.53;2.20;;;11.10;96.40;;;;;;4984022;28;20038;-43
2023/03/28 13:03:29;;;;;;;6.72;2.60;;;11.10;96.10;;;;;;4993027;28;20045;-43
2023/03/28 13:06:05;;;;;;;5.25;1.90;;;11.10;95.40;;;;;;4990010;28;20100;-43
2023/03/28 13:08:53;;;;;;;4.45;2.00;;;11.00;95.40;;;;;;4988429;28;20041;-42
2023/03/28 13:11:34;;;;;;;2.55;1.98;;;11.00;95.40;;;;;;4987389;28;20174;-43
2023/03/28 13:14:35;;;;;;;3.33;1.80;;;11.10;95.10;;;;;;4988076;28;20040;-44
2023/03/28 13:17:02;;;;;;;4.38;2.00;;;11.10;95.50;;;;;;4987773;28;20038;-44
2023/03/28 13:19:46;;;;;;;6.28;2.50;;;11.20;95.30;;;;;;4987763;28;20196;-43
2023/03/28 13:22:28;;;;;;;3.60;2.40;;;11.30;94.30;;;;;;4986618;28;20158;-43
2023/03/28 13:25:14;;;;;;;4.32;2.20;;;11.30;94.40;;;;;;4988229;28;20115;-43
2023/03/28 13:27:40;;;;;;;5.40;2.08;;;11.40;94.00;;;;;;4987391;28;20701;-43